Nicola Andrea — IPAF — position and weather

sailwx.info

Track history (hours):
 
Tides and Currents Weather Stations Pressure Air Temp Water Temp Dewpoint Dewpoint Depression Visibility Wind Speed Wind Dir Waves Ship Positions

Nicola Andrea

Last reported at 2018-Mar-15 05:31 UTC. Time now 2018-Jul-21 19:17 UTC.
Position N 40°10' E 016°51'.
Warning: this ship's position is months out of date.

Length 21 m; draft 2.8 m.

Type: Fishing. MMSI: 247134160.

Date/timePositionNaut miles runAvg speedWind from/ knotsBaromVisibWave heightAir tempDewpointWater temp
2018-Mar-15 05:31N 40°10' E 016°51'0 2.7
2018-Mar-15 05:30N 40°10' E 016°51'2 4.2
2018-Mar-15 04:59N 40°11' E 016°53'2 4.1
2018-Mar-15 04:26N 40°12' E 016°50'1 2.4
2018-Mar-15 04:00N 40°11' E 016°50'1 2.6
2018-Mar-15 03:29N 40°10' E 016°49'1 2.7
2018-Mar-15 03:01N 40°09' E 016°49'1 2.7
2018-Mar-15 02:27N 40°08' E 016°48'1 2.8
2018-Mar-15 01:59N 40°06' E 016°47'8 0.7
2018-Mar-14 15:17N 39°60' E 016°42'1 2.7
2018-Mar-14 14:55N 39°59' E 016°42'16 2.0
2018-Mar-14 07:06N 40°11' E 016°55'0 4.8
2018-Mar-14 07:00N 40°11' E 016°55'2 5.0
2018-Mar-14 06:30N 40°12' E 016°52'1 2.1
2018-Mar-14 06:00N 40°11' E 016°51'1 2.8
2018-Mar-14 05:30N 40°10' E 016°50'3 0.5
2018-Mar-13 23:07N 40°12' E 016°53'1 5.0
2018-Mar-13 22:59N 40°12' E 016°52'15 3.4
2018-Mar-13 18:42N 39°59' E 016°43'312.1
2018-Mar-13 18:27N 39°58' E 016°39'19 6.6
2018-Mar-13 15:35N 39°40' E 016°31'0 0.0
2018-Mar-13 15:26N 39°40' E 016°31'16 6.4
2018-Mar-13 12:54N 39°54' E 016°40'19 2.2
2018-Mar-13 04:25N 40°11' E 016°52'2 4.0
2018-Mar-13 04:00N 40°12' E 016°51'1 2.1
2018-Mar-13 03:19N 40°12' E 016°49'1 2.4
2018-Mar-13 02:54N 40°12' E 016°48'2 0.1
2018-Mar-12 09:23N 40°10' E 016°50'1 1.7
2018-Mar-12 08:57N 40°11' E 016°50'0 1.1
2018-Mar-12 08:30N 40°11' E 016°50'2 2.6
2018-Mar-12 07:55N 40°09' E 016°49'4 2.6
2018-Mar-12 06:26N 40°06' E 016°48'9 2.2
2018-Mar-12 02:22N 39°58' E 016°42'15 5.3
2018-Mar-11 23:33N 39°44' E 016°33'1 9.3
2018-Mar-11 23:28N 39°44' E 016°33'  
2018-Mar-07 15:21N 40°12' E 016°48'1 1.6
2018-Mar-07 15:00N 40°13' E 016°48'1 2.2
2018-Mar-07 14:30N 40°12' E 016°48'1 2.5
2018-Mar-07 14:00N 40°11' E 016°47'2 2.6
2018-Mar-07 13:23N 40°10' E 016°46'4 0.9
2018-Mar-07 08:59N 40°13' E 016°48'3 3.5
2018-Mar-07 08:09N 40°10' E 016°47'3 2.7
2018-Mar-07 07:06N 40°08' E 016°45'0 2.7
2018-Mar-07 07:00N 40°08' E 016°44'2 2.7
2018-Mar-07 06:13N 40°06' E 016°43'1 2.6
2018-Mar-07 06:00N 40°06' E 016°43'6 1.7
2018-Mar-07 02:22N 40°11' E 016°47'14 0.9
2018-Mar-06 11:40N 39°58' E 016°43'13 2.2
2018-Mar-06 05:45N 40°10' E 016°51'1 2.6
2018-Mar-06 05:15N 40°11' E 016°51'1 4.8
2018-Mar-06 05:00N 40°12' E 016°52'16 1.5
2018-Mar-05 17:47N 39°58' E 016°41'15 2.1
2018-Mar-05 10:21N 40°11' E 016°51'9 2.3
2018-Mar-05 06:13N 40°05' E 016°42'0 1.5
2018-Mar-05 05:57N 40°05' E 016°42'  
Track history (hours):
 
Tides and Currents Weather Stations Pressure Air Temp Water Temp Dewpoint Dewpoint Depression Visibility Wind Speed Wind Dir Waves Ship Positions

Nicola Andrea

Last reported at 2018-Mar-15 05:31 UTC. Time now 2018-Jul-21 19:17 UTC.
Position N 40°10' E 016°51'.
Warning: this ship's position is months out of date.

Length 21 m; draft 2.8 m.

Type: Fishing. MMSI: 247134160.

Date/timePositionNaut miles runAvg speedWind from/ knotsBaromVisibWave heightAir tempDewpointWater temp
2018-Mar-15 05:31N 40°10' E 016°51'0 2.7
2018-Mar-15 05:30N 40°10' E 016°51'2 4.2
2018-Mar-15 04:59N 40°11' E 016°53'2 4.1
2018-Mar-15 04:26N 40°12' E 016°50'1 2.4
2018-Mar-15 04:00N 40°11' E 016°50'1 2.6
2018-Mar-15 03:29N 40°10' E 016°49'1 2.7
2018-Mar-15 03:01N 40°09' E 016°49'1 2.7
2018-Mar-15 02:27N 40°08' E 016°48'1 2.8
2018-Mar-15 01:59N 40°06' E 016°47'8 0.7
2018-Mar-14 15:17N 39°60' E 016°42'1 2.7
2018-Mar-14 14:55N 39°59' E 016°42'16 2.0
2018-Mar-14 07:06N 40°11' E 016°55'0 4.8
2018-Mar-14 07:00N 40°11' E 016°55'2 5.0
2018-Mar-14 06:30N 40°12' E 016°52'1 2.1
2018-Mar-14 06:00N 40°11' E 016°51'1 2.8
2018-Mar-14 05:30N 40°10' E 016°50'3 0.5
2018-Mar-13 23:07N 40°12' E 016°53'1 5.0
2018-Mar-13 22:59N 40°12' E 016°52'15 3.4
2018-Mar-13 18:42N 39°59' E 016°43'312.1
2018-Mar-13 18:27N 39°58' E 016°39'19 6.6
2018-Mar-13 15:35N 39°40' E 016°31'0 0.0
2018-Mar-13 15:26N 39°40' E 016°31'16 6.4
2018-Mar-13 12:54N 39°54' E 016°40'19 2.2
2018-Mar-13 04:25N 40°11' E 016°52'2 4.0
2018-Mar-13 04:00N 40°12' E 016°51'1 2.1
2018-Mar-13 03:19N 40°12' E 016°49'1 2.4
2018-Mar-13 02:54N 40°12' E 016°48'2 0.1
2018-Mar-12 09:23N 40°10' E 016°50'1 1.7
2018-Mar-12 08:57N 40°11' E 016°50'0 1.1
2018-Mar-12 08:30N 40°11' E 016°50'2 2.6
2018-Mar-12 07:55N 40°09' E 016°49'4 2.6
2018-Mar-12 06:26N 40°06' E 016°48'9 2.2
2018-Mar-12 02:22N 39°58' E 016°42'15 5.3
2018-Mar-11 23:33N 39°44' E 016°33'1 9.3
2018-Mar-11 23:28N 39°44' E 016°33'  
2018-Mar-07 15:21N 40°12' E 016°48'1 1.6
2018-Mar-07 15:00N 40°13' E 016°48'1 2.2
2018-Mar-07 14:30N 40°12' E 016°48'1 2.5
2018-Mar-07 14:00N 40°11' E 016°47'2 2.6
2018-Mar-07 13:23N 40°10' E 016°46'4 0.9
2018-Mar-07 08:59N 40°13' E 016°48'3 3.5
2018-Mar-07 08:09N 40°10' E 016°47'3 2.7
2018-Mar-07 07:06N 40°08' E 016°45'0 2.7
2018-Mar-07 07:00N 40°08' E 016°44'2 2.7
2018-Mar-07 06:13N 40°06' E 016°43'1 2.6
2018-Mar-07 06:00N 40°06' E 016°43'6 1.7
2018-Mar-07 02:22N 40°11' E 016°47'14 0.9
2018-Mar-06 11:40N 39°58' E 016°43'13 2.2
2018-Mar-06 05:45N 40°10' E 016°51'1 2.6
2018-Mar-06 05:15N 40°11' E 016°51'1 4.8
2018-Mar-06 05:00N 40°12' E 016°52'16 1.5
2018-Mar-05 17:47N 39°58' E 016°41'15 2.1
2018-Mar-05 10:21N 40°11' E 016°51'9 2.3
2018-Mar-05 06:13N 40°05' E 016°42'0 1.5
2018-Mar-05 05:57N 40°05' E 016°42'  

Dump ship's entire track history